sensor_id;sensor_type;location;lat;lon;timestamp;temperature;humidity
3626;DHT22;1827;50.534;8.316;2023-02-28T00:02:22;-0.60;1.00
3626;DHT22;1827;50.534;8.316;2023-02-28T00:04:48;-0.60;1.00
3626;DHT22;1827;50.534;8.316;2023-02-28T00:07:19;-0.70;1.00
3626;DHT22;1827;50.534;8.316;2023-02-28T00:09:44;-0.70;1.00
3626;DHT22;1827;50.534;8.316;2023-02-28T00:12:10;-0.70;1.00
3626;DHT22;1827;50.534;8.316;2023-02-28T00:14:39;-0.70;1.00
3626;DHT22;1827;50.534;8.316;2023-02-28T00:17:04;-0.80;1.00
3626;DHT22;1827;50.534;8.316;2023-02-28T00:19:30;-0.80;1.00
3626;DHT22;1827;50.534;8.316;2023-02-28T00:21:56;-0.80;1.00
3626;DHT22;1827;50.534;8.316;2023-02-28T00:24:21;-0.80;1.00
3626;DHT22;1827;50.534;8.316;2023-02-28T00:26:47;-0.80;1.00
3626;DHT22;1827;50.534;8.316;2023-02-28T00:29:15;-0.80;1.00
3626;DHT22;1827;50.534;8.316;2023-02-28T00:31:43;-0.80;1.00
3626;DHT22;1827;50.534;8.316;2023-02-28T00:34:10;-0.90;1.00
3626;DHT22;1827;50.534;8.316;2023-02-28T00:36:36;-0.90;1.00
3626;DHT22;1827;50.534;8.316;2023-02-28T00:39:03;-0.90;1.00
3626;DHT22;1827;50.534;8.316;2023-02-28T00:41:29;-0.90;1.00
3626;DHT22;1827;50.534;8.316;2023-02-28T00:43:55;-0.90;1.00
3626;DHT22;1827;50.534;8.316;2023-02-28T00:46:20;-0.90;1.00
3626;DHT22;1827;50.534;8.316;2023-02-28T00:48:46;-0.90;1.00
3626;DHT22;1827;50.534;8.316;2023-02-28T00:51:15;-0.90;1.00
3626;DHT22;1827;50.534;8.316;2023-02-28T00:53:40;-1.00;1.00
3626;DHT22;1827;50.534;8.316;2023-02-28T00:56:06;-1.00;1.00
3626;DHT22;1827;50.534;8.316;2023-02-28T00:58:32;-1.00;1.00
3626;DHT22;1827;50.534;8.316;2023-02-28T01:00:58;-1.10;1.00
3626;DHT22;1827;50.534;8.316;2023-02-28T01:03:23;-1.10;1.00
3626;DHT22;1827;50.534;8.316;2023-02-28T01:05:49;-1.10;1.00
3626;DHT22;1827;50.534;8.316;2023-02-28T01:08:19;-1.10;1.00
3626;DHT22;1827;50.534;8.316;2023-02-28T01:10:45;-1.20;1.00
3626;DHT22;1827;50.534;8.316;2023-02-28T01:13:12;-1.30;1.00
3626;DHT22;1827;50.534;8.316;2023-02-28T01:15:48;-1.30;1.00
3626;DHT22;1827;50.534;8.316;2023-02-28T01:18:14;-1.40;1.00
3626;DHT22;1827;50.534;8.316;2023-02-28T01:20:40;-1.40;1.00
3626;DHT22;1827;50.534;8.316;2023-02-28T01:23:05;-1.40;1.00
3626;DHT22;1827;50.534;8.316;2023-02-28T01:25:36;-1.50;1.00
3626;DHT22;1827;50.534;8.316;2023-02-28T01:28:04;-1.50;1.00
3626;DHT22;1827;50.534;8.316;2023-02-28T01:30:31;-1.60;1.00
3626;DHT22;1827;50.534;8.316;2023-02-28T01:32:58;-1.60;1.00
3626;DHT22;1827;50.534;8.316;2023-02-28T01:35:25;-1.60;1.00
3626;DHT22;1827;50.534;8.316;2023-02-28T01:37:50;-1.60;1.00
3626;DHT22;1827;50.534;8.316;2023-02-28T01:40:16;-1.70;1.00
3626;DHT22;1827;50.534;8.316;2023-02-28T01:42:42;-1.70;1.00
3626;DHT22;1827;50.534;8.316;2023-02-28T01:45:25;-1.70;1.00
3626;DHT22;1827;50.534;8.316;2023-02-28T01:48:04;-1.70;1.00
3626;DHT22;1827;50.534;8.316;2023-02-28T01:50:35;-1.70;1.00
3626;DHT22;1827;50.534;8.316;2023-02-28T01:53:07;-1.80;1.00
3626;DHT22;1827;50.534;8.316;2023-02-28T01:55:34;-1.80;1.00
3626;DHT22;1827;50.534;8.316;2023-02-28T01:58:03;-1.80;1.00
3626;DHT22;1827;50.534;8.316;2023-02-28T02:00:30;-1.80;1.00
3626;DHT22;1827;50.534;8.316;2023-02-28T02:03:07;-1.80;1.00
3626;DHT22;1827;50.534;8.316;2023-02-28T02:05:37;-1.80;1.00
3626;DHT22;1827;50.534;8.316;2023-02-28T02:08:12;-1.70;1.00
3626;DHT22;1827;50.534;8.316;2023-02-28T02:10:52;-1.80;1.00
3626;DHT22;1827;50.534;8.316;2023-02-28T02:16:28;-1.90;1.00
3626;DHT22;1827;50.534;8.316;2023-02-28T02:22:11;-2.00;1.00
3626;DHT22;1827;50.534;8.316;2023-02-28T02:35:54;-2.30;1.00
3626;DHT22;1827;50.534;8.316;2023-02-28T02:38:51;-2.30;1.00
3626;DHT22;1827;50.534;8.316;2023-02-28T02:41:28;-2.20;1.00
3626;DHT22;1827;50.534;8.316;2023-02-28T02:44:26;-2.30;1.00
3626;DHT22;1827;50.534;8.316;2023-02-28T02:47:08;-2.40;1.00
3626;DHT22;1827;50.534;8.316;2023-02-28T02:49:37;-2.30;1.00
3626;DHT22;1827;50.534;8.316;2023-02-28T02:52:07;-2.40;1.00
3626;DHT22;1827;50.534;8.316;2023-02-28T02:54:40;-2.50;1.00
3626;DHT22;1827;50.534;8.316;2023-02-28T02:57:10;-2.50;1.00
3626;DHT22;1827;50.534;8.316;2023-02-28T02:59:40;-2.20;1.00
3626;DHT22;1827;50.534;8.316;2023-02-28T03:02:11;-2.10;1.00
3626;DHT22;1827;50.534;8.316;2023-02-28T03:04:43;-2.20;1.00
3626;DHT22;1827;50.534;8.316;2023-02-28T03:07:10;-2.20;1.00
3626;DHT22;1827;50.534;8.316;2023-02-28T03:09:36;-2.30;1.00
3626;DHT22;1827;50.534;8.316;2023-02-28T03:12:03;-2.20;1.00
3626;DHT22;1827;50.534;8.316;2023-02-28T03:20:17;-2.10;1.00
3626;DHT22;1827;50.534;8.316;2023-02-28T03:23:10;-2.30;1.00
3626;DHT22;1827;50.534;8.316;2023-02-28T03:26:04;-2.10;1.00
3626;DHT22;1827;50.534;8.316;2023-02-28T03:31:43;-2.30;1.00
3626;DHT22;1827;50.534;8.316;2023-02-28T03:34:17;-2.40;1.00
3626;DHT22;1827;50.534;8.316;2023-02-28T03:36:48;-2.40;1.00
3626;DHT22;1827;50.534;8.316;2023-02-28T03:39:30;-2.30;1.00
3626;DHT22;1827;50.534;8.316;2023-02-28T03:42:02;-2.50;1.00
3626;DHT22;1827;50.534;8.316;2023-02-28T03:44:39;-2.40;1.00
3626;DHT22;1827;50.534;8.316;2023-02-28T03:47:11;-2.40;1.00
3626;DHT22;1827;50.534;8.316;2023-02-28T03:49:55;-2.70;1.00
3626;DHT22;1827;50.534;8.316;2023-02-28T03:52:24;-2.60;1.00
3626;DHT22;1827;50.534;8.316;2023-02-28T03:54:55;-2.60;1.00
3626;DHT22;1827;50.534;8.316;2023-02-28T03:57:37;-2.60;1.00
3626;DHT22;1827;50.534;8.316;2023-02-28T04:00:30;-2.70;1.00
3626;DHT22;1827;50.534;8.316;2023-02-28T04:02:58;-2.50;1.00
3626;DHT22;1827;50.534;8.316;2023-02-28T04:05:24;-2.70;1.00
3626;DHT22;1827;50.534;8.316;2023-02-28T04:07:50;-2.90;1.00
3626;DHT22;1827;50.534;8.316;2023-02-28T04:10:16;-2.90;1.00
3626;DHT22;1827;50.534;8.316;2023-02-28T04:12:42;-2.80;1.00
3626;DHT22;1827;50.534;8.316;2023-02-28T04:15:09;-2.80;1.00
3626;DHT22;1827;50.534;8.316;2023-02-28T04:17:35;-2.70;1.00
3626;DHT22;1827;50.534;8.316;2023-02-28T04:20:01;-2.60;1.00
3626;DHT22;1827;50.534;8.316;2023-02-28T04:22:28;-2.60;1.00
3626;DHT22;1827;50.534;8.316;2023-02-28T04:24:54;-2.70;1.00
3626;DHT22;1827;50.534;8.316;2023-02-28T04:27:20;-2.80;1.00
3626;DHT22;1827;50.534;8.316;2023-02-28T04:29:46;-2.80;1.00
3626;DHT22;1827;50.534;8.316;2023-02-28T04:32:12;-2.90;1.00
3626;DHT22;1827;50.534;8.316;2023-02-28T04:34:38;-2.80;1.00
3626;DHT22;1827;50.534;8.316;2023-02-28T04:37:04;-2.80;1.00
3626;DHT22;1827;50.534;8.316;2023-02-28T04:39:30;-2.70;1.00
3626;DHT22;1827;50.534;8.316;2023-02-28T04:41:55;-2.80;1.00
3626;DHT22;1827;50.534;8.316;2023-02-28T04:44:22;-3.00;1.00
3626;DHT22;1827;50.534;8.316;2023-02-28T04:46:48;-3.00;1.00
3626;DHT22;1827;50.534;8.316;2023-02-28T04:49:14;-3.20;1.00
3626;DHT22;1827;50.534;8.316;2023-02-28T04:51:41;-3.30;1.00
3626;DHT22;1827;50.534;8.316;2023-02-28T04:54:07;-3.50;1.00
3626;DHT22;1827;50.534;8.316;2023-02-28T04:56:33;-3.50;1.00
3626;DHT22;1827;50.534;8.316;2023-02-28T04:58:59;-3.50;1.00
3626;DHT22;1827;50.534;8.316;2023-02-28T05:01:28;-3.50;1.00
3626;DHT22;1827;50.534;8.316;2023-02-28T05:03:55;-3.50;1.00
3626;DHT22;1827;50.534;8.316;2023-02-28T05:06:23;-3.40;1.00
3626;DHT22;1827;50.534;8.316;2023-02-28T05:08:49;-3.50;1.00
3626;DHT22;1827;50.534;8.316;2023-02-28T05:11:24;-3.70;1.00
3626;DHT22;1827;50.534;8.316;2023-02-28T05:13:51;-3.80;1.00
3626;DHT22;1827;50.534;8.316;2023-02-28T05:16:18;-3.90;1.00
3626;DHT22;1827;50.534;8.316;2023-02-28T05:18:44;-4.00;1.00
3626;DHT22;1827;50.534;8.316;2023-02-28T05:21:23;-4.10;1.00
3626;DHT22;1827;50.534;8.316;2023-02-28T05:23:49;-4.10;1.00
3626;DHT22;1827;50.534;8.316;2023-02-28T05:26:15;-4.10;1.00
3626;DHT22;1827;50.534;8.316;2023-02-28T05:28:45;-4.00;1.00
3626;DHT22;1827;50.534;8.316;2023-02-28T05:31:11;-4.00;1.00
3626;DHT22;1827;50.534;8.316;2023-02-28T05:33:37;-4.10;1.00
3626;DHT22;1827;50.534;8.316;2023-02-28T05:36:04;-4.10;1.00
3626;DHT22;1827;50.534;8.316;2023-02-28T05:38:41;-4.20;1.00
3626;DHT22;1827;50.534;8.316;2023-02-28T05:41:18;-4.10;1.00
3626;DHT22;1827;50.534;8.316;2023-02-28T05:43:45;-4.20;1.00
3626;DHT22;1827;50.534;8.316;2023-02-28T05:46:12;-4.00;1.00
3626;DHT22;1827;50.534;8.316;2023-02-28T05:48:41;-4.10;1.00
3626;DHT22;1827;50.534;8.316;2023-02-28T05:51:10;-4.20;1.00
3626;DHT22;1827;50.534;8.316;2023-02-28T05:53:36;-4.30;1.00
3626;DHT22;1827;50.534;8.316;2023-02-28T05:56:02;-4.30;1.00
3626;DHT22;1827;50.534;8.316;2023-02-28T05:58:28;-4.40;1.00
3626;DHT22;1827;50.534;8.316;2023-02-28T06:01:19;-4.40;1.00
3626;DHT22;1827;50.534;8.316;2023-02-28T06:03:46;-4.40;1.00
3626;DHT22;1827;50.534;8.316;2023-02-28T06:06:14;-4.40;1.00
3626;DHT22;1827;50.534;8.316;2023-02-28T06:08:40;-4.40;1.00
3626;DHT22;1827;50.534;8.316;2023-02-28T06:11:11;-4.30;1.00
3626;DHT22;1827;50.534;8.316;2023-02-28T06:13:41;-4.30;1.00
3626;DHT22;1827;50.534;8.316;2023-02-28T06:16:13;-4.40;1.00
3626;DHT22;1827;50.534;8.316;2023-02-28T06:18:43;-4.40;1.00
3626;DHT22;1827;50.534;8.316;2023-02-28T06:21:14;-4.40;1.00
3626;DHT22;1827;50.534;8.316;2023-02-28T06:23:41;-4.30;1.00
3626;DHT22;1827;50.534;8.316;2023-02-28T06:26:09;-4.10;1.00
3626;DHT22;1827;50.534;8.316;2023-02-28T06:28:39;-4.00;1.00
3626;DHT22;1827;50.534;8.316;2023-02-28T06:31:12;-3.90;1.00
3626;DHT22;1827;50.534;8.316;2023-02-28T06:33:38;-3.70;1.00
3626;DHT22;1827;50.534;8.316;2023-02-28T06:36:08;-3.60;1.00
3626;DHT22;1827;50.534;8.316;2023-02-28T06:38:35;-3.30;1.00
3626;DHT22;1827;50.534;8.316;2023-02-28T06:41:04;-3.30;1.00
3626;DHT22;1827;50.534;8.316;2023-02-28T06:43:34;-3.00;1.00
3626;DHT22;1827;50.534;8.316;2023-02-28T06:46:08;-2.80;1.00
3626;DHT22;1827;50.534;8.316;2023-02-28T06:48:35;-2.60;1.00
3626;DHT22;1827;50.534;8.316;2023-02-28T06:51:03;-2.40;1.00
3626;DHT22;1827;50.534;8.316;2023-02-28T06:53:29;-2.30;1.00
3626;DHT22;1827;50.534;8.316;2023-02-28T06:55:57;-2.10;1.00
3626;DHT22;1827;50.534;8.316;2023-02-28T06:58:28;-2.10;1.00
3626;DHT22;1827;50.534;8.316;2023-02-28T07:00:56;-2.10;1.00
3626;DHT22;1827;50.534;8.316;2023-02-28T07:03:25;-1.90;1.00
3626;DHT22;1827;50.534;8.316;2023-02-28T07:05:53;-1.70;1.00
3626;DHT22;1827;50.534;8.316;2023-02-28T07:08:25;-1.60;1.00
3626;DHT22;1827;50.534;8.316;2023-02-28T07:10:56;-1.50;1.00
3626;DHT22;1827;50.534;8.316;2023-02-28T07:13:23;-1.50;1.00
3626;DHT22;1827;50.534;8.316;2023-02-28T07:15:59;-1.50;1.00
3626;DHT22;1827;50.534;8.316;2023-02-28T07:18:28;-1.40;1.00
3626;DHT22;1827;50.534;8.316;2023-02-28T07:20:57;-1.10;1.00
3626;DHT22;1827;50.534;8.316;2023-02-28T07:23:26;-0.80;1.00
3626;DHT22;1827;50.534;8.316;2023-02-28T07:25:54;-0.70;1.00
3626;DHT22;1827;50.534;8.316;2023-02-28T07:28:24;-0.60;1.00
3626;DHT22;1827;50.534;8.316;2023-02-28T07:30:53;-0.60;1.00
3626;DHT22;1827;50.534;8.316;2023-02-28T07:33:24;-0.50;1.00
3626;DHT22;1827;50.534;8.316;2023-02-28T07:36:00;-0.40;1.00
3626;DHT22;1827;50.534;8.316;2023-02-28T07:38:30;-0.10;1.00
3626;DHT22;1827;50.534;8.316;2023-02-28T07:41:00;0.10;1.00
3626;DHT22;1827;50.534;8.316;2023-02-28T07:43:33;0.20;1.00
3626;DHT22;1827;50.534;8.316;2023-02-28T07:46:13;0.10;1.00
3626;DHT22;1827;50.534;8.316;2023-02-28T07:48:46;0.10;1.00
3626;DHT22;1827;50.534;8.316;2023-02-28T07:51:13;0.10;1.00
3626;DHT22;1827;50.534;8.316;2023-02-28T07:53:42;0.10;1.00
3626;DHT22;1827;50.534;8.316;2023-02-28T07:56:08;0.10;1.00
3626;DHT22;1827;50.534;8.316;2023-02-28T07:58:33;0.20;99.90
3626;DHT22;1827;50.534;8.316;2023-02-28T08:01:10;0.20;99.90
3626;DHT22;1827;50.534;8.316;2023-02-28T08:03:39;0.20;99.90
3626;DHT22;1827;50.534;8.316;2023-02-28T08:06:19;0.30;99.90
3626;DHT22;1827;50.534;8.316;2023-02-28T08:08:49;0.30;99.90
3626;DHT22;1827;50.534;8.316;2023-02-28T08:11:19;0.40;99.90
3626;DHT22;1827;50.534;8.316;2023-02-28T08:13:47;0.50;99.90
3626;DHT22;1827;50.534;8.316;2023-02-28T08:16:17;0.50;99.90
3626;DHT22;1827;50.534;8.316;2023-02-28T08:18:53;0.60;99.90
3626;DHT22;1827;50.534;8.316;2023-02-28T08:21:21;0.60;99.90
3626;DHT22;1827;50.534;8.316;2023-02-28T08:23:49;0.60;99.90
3626;DHT22;1827;50.534;8.316;2023-02-28T08:26:19;0.70;99.90
3626;DHT22;1827;50.534;8.316;2023-02-28T08:28:47;0.70;99.90
3626;DHT22;1827;50.534;8.316;2023-02-28T08:31:17;0.80;99.90
3626;DHT22;1827;50.534;8.316;2023-02-28T08:33:46;0.90;99.90
3626;DHT22;1827;50.534;8.316;2023-02-28T08:36:14;1.00;99.90
3626;DHT22;1827;50.534;8.316;2023-02-28T08:38:41;1.30;99.90
3626;DHT22;1827;50.534;8.316;2023-02-28T08:41:11;1.40;99.90
3626;DHT22;1827;50.534;8.316;2023-02-28T08:43:39;1.70;99.90
3626;DHT22;1827;50.534;8.316;2023-02-28T08:46:08;1.60;99.90
3626;DHT22;1827;50.534;8.316;2023-02-28T08:48:42;1.60;99.90
3626;DHT22;1827;50.534;8.316;2023-02-28T08:51:15;1.40;99.90
3626;DHT22;1827;50.534;8.316;2023-02-28T08:53:46;1.50;99.90
3626;DHT22;1827;50.534;8.316;2023-02-28T08:56:19;1.50;99.90
3626;DHT22;1827;50.534;8.316;2023-02-28T08:58:51;1.70;99.90
3626;DHT22;1827;50.534;8.316;2023-02-28T09:01:25;1.50;99.90
3626;DHT22;1827;50.534;8.316;2023-02-28T09:03:53;2.10;99.90
3626;DHT22;1827;50.534;8.316;2023-02-28T09:06:24;2.10;99.90
3626;DHT22;1827;50.534;8.316;2023-02-28T09:08:57;2.00;99.90
3626;DHT22;1827;50.534;8.316;2023-02-28T09:11:28;2.00;99.90
3626;DHT22;1827;50.534;8.316;2023-02-28T09:13:54;2.10;99.90
3626;DHT22;1827;50.534;8.316;2023-02-28T09:16:30;1.80;99.90
3626;DHT22;1827;50.534;8.316;2023-02-28T09:18:59;2.00;99.90
3626;DHT22;1827;50.534;8.316;2023-02-28T09:21:26;2.20;99.90
3626;DHT22;1827;50.534;8.316;2023-02-28T09:23:54;1.90;99.90
3626;DHT22;1827;50.534;8.316;2023-02-28T09:26:27;1.90;99.90
3626;DHT22;1827;50.534;8.316;2023-02-28T09:28:54;2.40;99.90
3626;DHT22;1827;50.534;8.316;2023-02-28T09:31:28;2.30;99.90
3626;DHT22;1827;50.534;8.316;2023-02-28T09:34:01;2.40;99.90
3626;DHT22;1827;50.534;8.316;2023-02-28T09:36:30;2.50;99.90
3626;DHT22;1827;50.534;8.316;2023-02-28T09:38:59;2.10;99.90
3626;DHT22;1827;50.534;8.316;2023-02-28T09:41:37;2.40;99.90
3626;DHT22;1827;50.534;8.316;2023-02-28T09:47:05;2.40;99.90
3626;DHT22;1827;50.534;8.316;2023-02-28T09:49:44;2.20;99.90
3626;DHT22;1827;50.534;8.316;2023-02-28T09:52:20;2.50;99.90
3626;DHT22;1827;50.534;8.316;2023-02-28T09:54:51;2.70;99.90
3626;DHT22;1827;50.534;8.316;2023-02-28T09:57:35;2.60;99.90
3626;DHT22;1827;50.534;8.316;2023-02-28T10:00:24;2.50;99.90
3626;DHT22;1827;50.534;8.316;2023-02-28T10:06:07;2.70;99.90
3626;DHT22;1827;50.534;8.316;2023-02-28T10:08:42;2.90;99.90
3626;DHT22;1827;50.534;8.316;2023-02-28T10:11:16;2.70;99.90
3626;DHT22;1827;50.534;8.316;2023-02-28T10:13:53;2.90;99.90
3626;DHT22;1827;50.534;8.316;2023-02-28T10:21:59;3.10;99.90
3626;DHT22;1827;50.534;8.316;2023-02-28T10:24:32;2.70;99.90
3626;DHT22;1827;50.534;8.316;2023-02-28T10:29:57;3.60;99.90
3626;DHT22;1827;50.534;8.316;2023-02-28T10:32:33;4.00;99.90
3626;DHT22;1827;50.534;8.316;2023-02-28T10:35:13;3.70;99.90
3626;DHT22;1827;50.534;8.316;2023-02-28T10:37:42;3.00;99.90
3626;DHT22;1827;50.534;8.316;2023-02-28T10:43:00;3.20;99.90
3626;DHT22;1827;50.534;8.316;2023-02-28T10:45:35;3.80;99.90
3626;DHT22;1827;50.534;8.316;2023-02-28T11:01:21;2.70;99.90
3626;DHT22;1827;50.534;8.316;2023-02-28T11:03:48;2.80;99.90
3626;DHT22;1827;50.534;8.316;2023-02-28T11:06:22;2.80;99.90
3626;DHT22;1827;50.534;8.316;2023-02-28T11:08:55;2.70;99.90
3626;DHT22;1827;50.534;8.316;2023-02-28T11:11:26;2.90;99.90
3626;DHT22;1827;50.534;8.316;2023-02-28T11:13:55;2.60;99.90
3626;DHT22;1827;50.534;8.316;2023-02-28T11:16:36;2.50;99.90
3626;DHT22;1827;50.534;8.316;2023-02-28T11:19:05;2.40;99.90
3626;DHT22;1827;50.534;8.316;2023-02-28T11:21:37;2.50;99.90
3626;DHT22;1827;50.534;8.316;2023-02-28T11:24:36;3.00;99.90
3626;DHT22;1827;50.534;8.316;2023-02-28T11:27:03;3.30;99.90
3626;DHT22;1827;50.534;8.316;2023-02-28T11:29:30;3.80;99.90
3626;DHT22;1827;50.534;8.316;2023-02-28T11:34:38;4.10;99.90
3626;DHT22;1827;50.534;8.316;2023-02-28T11:37:09;4.40;99.90
3626;DHT22;1827;50.534;8.316;2023-02-28T11:39:36;3.90;99.90
3626;DHT22;1827;50.534;8.316;2023-02-28T11:42:32;3.60;99.90
3626;DHT22;1827;50.534;8.316;2023-02-28T11:53:43;3.60;99.90
3626;DHT22;1827;50.534;8.316;2023-02-28T11:56:25;4.10;99.90
3626;DHT22;1827;50.534;8.316;2023-02-28T12:07:11;4.60;99.90
3626;DHT22;1827;50.534;8.316;2023-02-28T12:12:43;5.10;99.90
3626;DHT22;1827;50.534;8.316;2023-02-28T12:23:25;5.00;99.90
3626;DHT22;1827;50.534;8.316;2023-02-28T12:28:33;5.50;99.90
3626;DHT22;1827;50.534;8.316;2023-02-28T12:31:14;4.40;99.90
3626;DHT22;1827;50.534;8.316;2023-02-28T12:33:48;4.50;99.90
3626;DHT22;1827;50.534;8.316;2023-02-28T12:36:19;4.30;99.90
3626;DHT22;1827;50.534;8.316;2023-02-28T12:39:00;4.40;99.90
3626;DHT22;1827;50.534;8.316;2023-02-28T12:44:20;3.80;99.90
3626;DHT22;1827;50.534;8.316;2023-02-28T12:46:55;3.80;99.90
3626;DHT22;1827;50.534;8.316;2023-02-28T12:49:27;3.50;99.90
3626;DHT22;1827;50.534;8.316;2023-02-28T12:51:57;3.30;99.90
3626;DHT22;1827;50.534;8.316;2023-02-28T12:57:21;3.40;99.90
3626;DHT22;1827;50.534;8.316;2023-02-28T12:59:49;3.60;99.90
3626;DHT22;1827;50.534;8.316;2023-02-28T13:02:46;3.60;99.90
3626;DHT22;1827;50.534;8.316;2023-02-28T13:05:41;3.70;99.90
3626;DHT22;1827;50.534;8.316;2023-02-28T13:11:29;3.80;99.90
3626;DHT22;1827;50.534;8.316;2023-02-28T13:14:02;4.00;99.90
3626;DHT22;1827;50.534;8.316;2023-02-28T13:17:01;4.30;99.90
3626;DHT22;1827;50.534;8.316;2023-02-28T13:19:30;4.30;99.90
3626;DHT22;1827;50.534;8.316;2023-02-28T13:22:01;4.20;99.90
3626;DHT22;1827;50.534;8.316;2023-02-28T13:24:42;3.90;99.90
3626;DHT22;1827;50.534;8.316;2023-02-28T13:27:11;3.70;99.90
3626;DHT22;1827;50.534;8.316;2023-02-28T13:29:46;4.00;99.90
3626;DHT22;1827;50.534;8.316;2023-02-28T13:37:44;3.80;99.90
3626;DHT22;1827;50.534;8.316;2023-02-28T13:42:52;3.80;99.90
3626;DHT22;1827;50.534;8.316;2023-02-28T13:45:28;3.60;99.90
3626;DHT22;1827;50.534;8.316;2023-02-28T13:47:58;3.80;99.90
3626;DHT22;1827;50.534;8.316;2023-02-28T13:50:36;3.80;99.90
3626;DHT22;1827;50.534;8.316;2023-02-28T13:55:49;4.10;99.90
3626;DHT22;1827;50.534;8.316;2023-02-28T14:06:24;4.10;99.90
3626;DHT22;1827;50.534;8.316;2023-02-28T14:09:18;4.10;99.90
3626;DHT22;1827;50.534;8.316;2023-02-28T14:11:45;4.30;99.90
3626;DHT22;1827;50.534;8.316;2023-02-28T14:15:23;4.00;99.90
3626;DHT22;1827;50.534;8.316;2023-02-28T14:17:17;3.90;99.90
3626;DHT22;1827;50.534;8.316;2023-02-28T14:19:46;4.20;99.90
3626;DHT22;1827;50.534;8.316;2023-02-28T14:22:42;4.10;99.90
3626;DHT22;1827;50.534;8.316;2023-02-28T14:28:10;3.90;99.90
3626;DHT22;1827;50.534;8.316;2023-02-28T14:36:37;4.20;99.90
3626;DHT22;1827;50.534;8.316;2023-02-28T14:39:18;4.30;99.90
3626;DHT22;1827;50.534;8.316;2023-02-28T14:41:45;4.20;99.90
3626;DHT22;1827;50.534;8.316;2023-02-28T14:46:41;4.10;99.90
3626;DHT22;1827;50.534;8.316;2023-02-28T14:49:29;4.00;99.90
3626;DHT22;1827;50.534;8.316;2023-02-28T14:52:15;4.20;99.90
3626;DHT22;1827;50.534;8.316;2023-02-28T14:54:43;4.20;99.90
3626;DHT22;1827;50.534;8.316;2023-02-28T14:57:28;4.20;99.90
3626;DHT22;1827;50.534;8.316;2023-02-28T15:00:03;4.10;99.90
3626;DHT22;1827;50.534;8.316;2023-02-28T15:02:35;4.20;99.90
3626;DHT22;1827;50.534;8.316;2023-02-28T15:07:36;4.10;99.90
3626;DHT22;1827;50.534;8.316;2023-02-28T15:10:30;4.20;99.90
3626;DHT22;1827;50.534;8.316;2023-02-28T15:13:07;4.10;99.90
3626;DHT22;1827;50.534;8.316;2023-02-28T15:15:47;4.10;99.90
3626;DHT22;1827;50.534;8.316;2023-02-28T15:20:49;4.30;99.90
3626;DHT22;1827;50.534;8.316;2023-02-28T15:23:16;4.10;99.90
3626;DHT22;1827;50.534;8.316;2023-02-28T15:25:42;4.20;99.90
3626;DHT22;1827;50.534;8.316;2023-02-28T15:28:16;4.20;99.90
3626;DHT22;1827;50.534;8.316;2023-02-28T15:30:58;4.20;99.90
3626;DHT22;1827;50.534;8.316;2023-02-28T15:33:27;4.20;99.90
3626;DHT22;1827;50.534;8.316;2023-02-28T15:36:31;4.10;99.90
3626;DHT22;1827;50.534;8.316;2023-02-28T15:38:59;4.20;99.90
3626;DHT22;1827;50.534;8.316;2023-02-28T15:41:37;4.10;99.90
3626;DHT22;1827;50.534;8.316;2023-02-28T15:44:37;4.20;99.90
3626;DHT22;1827;50.534;8.316;2023-02-28T15:47:14;4.20;99.90
3626;DHT22;1827;50.534;8.316;2023-02-28T15:49:49;4.00;99.90
3626;DHT22;1827;50.534;8.316;2023-02-28T15:52:21;3.80;99.90
3626;DHT22;1827;50.534;8.316;2023-02-28T15:54:48;3.80;99.90
3626;DHT22;1827;50.534;8.316;2023-02-28T15:57:25;3.70;99.90
3626;DHT22;1827;50.534;8.316;2023-02-28T15:59:55;3.70;99.90
3626;DHT22;1827;50.534;8.316;2023-02-28T16:02:30;3.70;99.90
3626;DHT22;1827;50.534;8.316;2023-02-28T16:05:01;3.70;99.90
3626;DHT22;1827;50.534;8.316;2023-02-28T16:07:42;3.70;99.90
3626;DHT22;1827;50.534;8.316;2023-02-28T16:10:10;3.60;99.90
3626;DHT22;1827;50.534;8.316;2023-02-28T16:12:38;3.50;99.90
3626;DHT22;1827;50.534;8.316;2023-02-28T16:15:28;3.40;99.90
3626;DHT22;1827;50.534;8.316;2023-02-28T16:17:55;3.40;99.90
3626;DHT22;1827;50.534;8.316;2023-02-28T16:20:30;3.40;99.90
3626;DHT22;1827;50.534;8.316;2023-02-28T16:22:57;3.30;99.90
3626;DHT22;1827;50.534;8.316;2023-02-28T16:25:33;3.30;99.90
3626;DHT22;1827;50.534;8.316;2023-02-28T16:27:59;3.20;99.90
3626;DHT22;1827;50.534;8.316;2023-02-28T16:30:28;3.30;99.90
3626;DHT22;1827;50.534;8.316;2023-02-28T16:32:57;3.20;99.90
3626;DHT22;1827;50.534;8.316;2023-02-28T16:35:23;3.10;99.90
3626;DHT22;1827;50.534;8.316;2023-02-28T16:37:52;3.00;99.90
3626;DHT22;1827;50.534;8.316;2023-02-28T16:40:21;3.00;99.90
3626;DHT22;1827;50.534;8.316;2023-02-28T16:42:53;3.00;99.90
3626;DHT22;1827;50.534;8.316;2023-02-28T16:45:26;2.90;99.90
3626;DHT22;1827;50.534;8.316;2023-02-28T16:47:52;2.80;99.90
3626;DHT22;1827;50.534;8.316;2023-02-28T16:50:22;2.80;99.90
3626;DHT22;1827;50.534;8.316;2023-02-28T16:52:48;2.70;99.90
3626;DHT22;1827;50.534;8.316;2023-02-28T16:55:15;2.60;99.90
3626;DHT22;1827;50.534;8.316;2023-02-28T16:57:41;2.40;99.90
3626;DHT22;1827;50.534;8.316;2023-02-28T17:00:10;2.30;99.90
3626;DHT22;1827;50.534;8.316;2023-02-28T17:02:36;2.20;99.90
3626;DHT22;1827;50.534;8.316;2023-02-28T17:05:02;2.10;99.90
3626;DHT22;1827;50.534;8.316;2023-02-28T17:07:28;2.00;99.90
3626;DHT22;1827;50.534;8.316;2023-02-28T17:09:54;1.80;99.90
3626;DHT22;1827;50.534;8.316;2023-02-28T17:12:20;1.70;99.90
3626;DHT22;1827;50.534;8.316;2023-02-28T17:14:46;1.60;99.90
3626;DHT22;1827;50.534;8.316;2023-02-28T17:17:21;1.50;99.90
3626;DHT22;1827;50.534;8.316;2023-02-28T17:19:49;1.40;99.90
3626;DHT22;1827;50.534;8.316;2023-02-28T17:22:17;1.30;99.90
3626;DHT22;1827;50.534;8.316;2023-02-28T17:24:44;1.30;99.90
3626;DHT22;1827;50.534;8.316;2023-02-28T17:27:12;1.30;99.90
3626;DHT22;1827;50.534;8.316;2023-02-28T17:29:38;1.20;99.90
3626;DHT22;1827;50.534;8.316;2023-02-28T17:32:04;1.20;99.90
3626;DHT22;1827;50.534;8.316;2023-02-28T17:34:30;1.00;99.90
3626;DHT22;1827;50.534;8.316;2023-02-28T17:36:58;1.00;99.90
3626;DHT22;1827;50.534;8.316;2023-02-28T17:39:24;0.90;99.90
3626;DHT22;1827;50.534;8.316;2023-02-28T17:41:56;0.80;99.90
3626;DHT22;1827;50.534;8.316;2023-02-28T17:44:24;0.80;99.90
3626;DHT22;1827;50.534;8.316;2023-02-28T17:46:55;0.70;99.90
3626;DHT22;1827;50.534;8.316;2023-02-28T17:49:23;0.70;99.90
3626;DHT22;1827;50.534;8.316;2023-02-28T17:51:49;0.60;99.90
3626;DHT22;1827;50.534;8.316;2023-02-28T17:54:17;0.60;99.90
3626;DHT22;1827;50.534;8.316;2023-02-28T17:56:45;0.40;99.90
3626;DHT22;1827;50.534;8.316;2023-02-28T17:59:12;0.40;99.90
3626;DHT22;1827;50.534;8.316;2023-02-28T18:01:38;0.40;99.90
3626;DHT22;1827;50.534;8.316;2023-02-28T18:04:04;0.30;99.90
3626;DHT22;1827;50.534;8.316;2023-02-28T18:06:37;0.30;99.90
3626;DHT22;1827;50.534;8.316;2023-02-28T18:09:18;0.40;99.90
3626;DHT22;1827;50.534;8.316;2023-02-28T18:11:55;0.30;99.90
3626;DHT22;1827;50.534;8.316;2023-02-28T18:14:23;0.40;99.90
3626;DHT22;1827;50.534;8.316;2023-02-28T18:16:55;0.30;99.90
3626;DHT22;1827;50.534;8.316;2023-02-28T18:19:25;0.20;99.90
3626;DHT22;1827;50.534;8.316;2023-02-28T18:21:52;0.10;99.90
3626;DHT22;1827;50.534;8.316;2023-02-28T18:24:21;-0.10;99.90
3626;DHT22;1827;50.534;8.316;2023-02-28T18:26:51;-0.10;99.90
3626;DHT22;1827;50.534;8.316;2023-02-28T18:29:22;-0.20;99.90
3626;DHT22;1827;50.534;8.316;2023-02-28T18:31:49;-0.20;99.90
3626;DHT22;1827;50.534;8.316;2023-02-28T18:34:15;-0.40;99.90
3626;DHT22;1827;50.534;8.316;2023-02-28T18:36:42;-0.40;99.90
3626;DHT22;1827;50.534;8.316;2023-02-28T18:39:15;-0.50;99.90
3626;DHT22;1827;50.534;8.316;2023-02-28T18:41:45;-0.40;99.90
3626;DHT22;1827;50.534;8.316;2023-02-28T18:44:11;-0.50;99.90
3626;DHT22;1827;50.534;8.316;2023-02-28T18:46:38;-0.60;99.90
3626;DHT22;1827;50.534;8.316;2023-02-28T18:49:08;-0.60;99.90
3626;DHT22;1827;50.534;8.316;2023-02-28T18:51:35;-0.70;99.90
3626;DHT22;1827;50.534;8.316;2023-02-28T18:54:02;-0.80;99.90
3626;DHT22;1827;50.534;8.316;2023-02-28T18:56:28;-0.90;99.90
3626;DHT22;1827;50.534;8.316;2023-02-28T18:58:56;-0.90;99.90